Time;durP1;ratioP1;P1;durP2;ratioP2;P2;SDS_P1;SDS_P2;PMS_P1;PMS_P2;Temp;Humidity;BMP_temperature;BMP_pressure;BME280_temperature;BME280_humidity;BME280_pressure;Samples;Min_cycle;Max_cycle;Signal;HPM_P1;HPM_P2
2022/03/08 00:02:06;;;;;;;0.80;0.80;;;-1.80;99.90;;;-143.19;100.00;53775.09;4955190;28;20221;-65
2022/03/08 00:04:34;;;;;;;0.95;0.95;;;-2.00;99.90;;;-143.19;100.00;53775.09;4938987;28;20229;-65
2022/03/08 00:07:03;;;;;;;0.90;0.90;;;-2.00;99.90;;;-143.19;100.00;53775.09;4951787;28;20218;-65
2022/03/08 00:09:31;;;;;;;1.40;1.30;;;-2.00;99.90;;;-143.19;100.00;53775.09;4929374;28;20245;-65
2022/03/08 00:11:59;;;;;;;0.90;0.90;;;-1.90;99.90;;;-143.19;100.00;53775.09;4952359;28;20585;-65
2022/03/08 00:14:27;;;;;;;0.70;0.70;;;-2.00;99.90;;;-143.19;100.00;53775.09;4931652;28;20225;-65
2022/03/08 00:16:55;;;;;;;0.90;0.90;;;-2.00;99.90;;;-143.19;100.00;53775.09;4953509;28;20210;-65
2022/03/08 00:19:24;;;;;;;0.90;0.90;;;-2.10;99.90;;;-143.19;100.00;53775.09;4940398;28;20212;-65
2022/03/08 00:21:52;;;;;;;0.90;0.90;;;-2.10;99.90;;;-143.19;100.00;53775.09;4939219;28;20210;-65
2022/03/08 00:24:20;;;;;;;0.90;0.90;;;-2.10;99.90;;;-143.19;100.00;53775.09;4941810;28;20265;-65
2022/03/08 00:26:48;;;;;;;0.90;0.90;;;-2.10;99.90;;;-143.19;100.00;53775.09;4925056;28;20216;-65
2022/03/08 00:29:16;;;;;;;1.30;1.25;;;-2.00;99.90;;;-143.19;100.00;53775.09;4934558;28;20256;-65
2022/03/08 00:31:44;;;;;;;0.90;0.90;;;-1.90;99.90;;;-143.19;100.00;53775.09;4932520;28;20216;-65
2022/03/08 00:34:12;;;;;;;1.02;1.02;;;-1.70;99.90;;;-143.19;100.00;53775.09;4901874;28;20233;-65
2022/03/08 00:36:40;;;;;;;1.00;1.00;;;-2.00;99.90;;;-143.19;100.00;53775.09;4935072;28;20204;-65
2022/03/08 00:39:08;;;;;;;0.82;0.82;;;-2.10;99.90;;;-143.19;100.00;53775.09;4946104;28;20224;-65
2022/03/08 00:41:37;;;;;;;0.88;0.88;;;-2.20;99.90;;;-143.19;100.00;53775.09;4945294;28;20205;-65
2022/03/08 00:44:06;;;;;;;1.15;1.15;;;-2.30;99.90;;;-143.19;100.00;53775.09;4914292;28;20237;-65
2022/03/08 00:46:35;;;;;;;1.10;1.10;;;-2.30;99.90;;;-143.19;100.00;53775.09;4929704;28;20222;-65
2022/03/08 00:49:04;;;;;;;1.23;1.17;;;-2.20;99.90;;;-143.19;100.00;53775.09;4932749;28;20229;-65
2022/03/08 00:51:32;;;;;;;0.70;0.70;;;-2.30;99.90;;;-143.19;100.00;53775.09;4928838;28;20220;-64
2022/03/08 00:54:00;;;;;;;0.80;0.80;;;-2.30;99.90;;;-143.19;100.00;53775.09;4937981;28;20220;-65
2022/03/08 00:56:28;;;;;;;0.80;0.80;;;-2.40;99.90;;;-143.19;100.00;53775.09;4917856;28;20257;-65
2022/03/08 00:58:56;;;;;;;1.27;1.17;;;-2.40;99.90;;;-143.19;100.00;53775.09;4945763;28;20214;-65
2022/03/08 01:01:24;;;;;;;1.35;1.25;;;-2.40;99.90;;;-143.19;100.00;53775.09;4917316;28;20208;-65
2022/03/08 01:03:52;;;;;;;1.10;1.10;;;-2.40;99.90;;;-143.19;100.00;53775.09;4935968;28;20233;-65
2022/03/08 01:06:20;;;;;;;1.00;1.00;;;-2.40;99.90;;;-143.19;100.00;53775.09;4919790;28;20220;-65
2022/03/08 01:08:49;;;;;;;1.27;1.17;;;-2.40;99.90;;;-143.19;100.00;53775.09;4934297;28;20623;-65
2022/03/08 01:11:17;;;;;;;1.42;1.33;;;-2.60;99.90;;;-143.19;100.00;53775.09;4933379;28;20209;-65
2022/03/08 01:13:45;;;;;;;1.20;1.13;;;-2.30;99.90;;;-143.19;100.00;53775.09;4918000;28;20221;-66
2022/03/08 01:16:13;;;;;;;0.82;0.82;;;-2.40;99.90;;;-143.19;100.00;53775.09;4918887;28;20202;-65
2022/03/08 01:18:41;;;;;;;1.30;1.20;;;-2.30;99.90;;;-143.19;100.00;53775.09;4928790;28;20239;-65
2022/03/08 01:21:11;;;;;;;1.00;1.00;;;-2.40;99.90;;;-143.19;100.00;53775.09;4946410;28;20216;-65
2022/03/08 01:23:39;;;;;;;0.95;0.95;;;-2.40;99.90;;;-143.19;100.00;53775.09;4921743;28;20236;-65
2022/03/08 01:26:07;;;;;;;1.40;1.30;;;-2.40;99.90;;;-143.19;100.00;53775.09;4942519;28;20218;-68
2022/03/08 01:28:35;;;;;;;1.40;1.30;;;-2.50;99.90;;;-143.19;100.00;53775.09;4930703;28;20222;-64
2022/03/08 01:31:03;;;;;;;1.10;1.10;;;-2.40;99.90;;;-143.19;100.00;53775.09;4950863;28;20209;-65
2022/03/08 01:33:31;;;;;;;1.10;1.10;;;-2.40;99.90;;;-143.19;100.00;53775.09;4929543;28;20708;-65
2022/03/08 01:35:59;;;;;;;1.05;1.05;;;-2.40;99.90;;;-143.19;100.00;53775.09;4932526;28;20209;-65
2022/03/08 01:38:28;;;;;;;1.30;1.20;;;-2.40;99.90;;;-143.19;100.00;53775.09;4950385;28;20222;-65
2022/03/08 01:40:57;;;;;;;1.30;1.20;;;-2.50;99.90;;;-143.19;100.00;53775.09;4932515;28;20213;-65
2022/03/08 01:43:25;;;;;;;1.23;1.13;;;-2.50;99.90;;;-143.19;100.00;53775.09;4919071;28;20225;-65
2022/03/08 01:45:55;;;;;;;1.00;1.00;;;-2.50;99.90;;;-143.19;100.00;53775.09;4920224;28;20224;-65
2022/03/08 01:48:23;;;;;;;0.90;0.90;;;-2.60;99.90;;;-143.19;100.00;53775.09;4945448;28;20225;-65
2022/03/08 01:50:52;;;;;;;0.82;0.82;;;-2.60;99.90;;;-143.19;100.00;53775.09;4945262;28;20217;-65
2022/03/08 01:53:20;;;;;;;2.22;2.03;;;-2.60;99.90;;;-143.19;100.00;53775.09;4946006;28;20213;-65
2022/03/08 01:55:50;;;;;;;0.80;0.80;;;-2.60;99.90;;;-143.19;100.00;53775.09;4927854;28;20216;-65
2022/03/08 01:58:24;;;;;;;0.90;0.90;;;-2.70;99.90;;;-143.19;100.00;53775.09;4947136;28;20202;-66
2022/03/08 02:00:53;;;;;;;1.00;1.00;;;-2.70;99.90;;;-143.19;100.00;53775.09;4941981;28;20206;-65
2022/03/08 02:03:21;;;;;;;0.90;0.90;;;-2.70;99.90;;;-143.19;100.00;53775.09;4959081;28;20212;-65
2022/03/08 02:05:49;;;;;;;0.90;0.90;;;-2.60;99.90;;;-143.19;100.00;53775.09;4925262;28;20214;-65
2022/03/08 02:08:18;;;;;;;1.10;1.08;;;-2.70;99.90;;;-143.19;100.00;53775.09;4956939;28;20213;-66
2022/03/08 02:10:46;;;;;;;1.00;1.00;;;-2.70;99.90;;;-143.19;100.00;53775.09;4941297;28;20610;-65
2022/03/08 02:13:14;;;;;;;0.98;0.98;;;-2.80;99.90;;;-143.19;100.00;53775.09;4944749;28;20214;-65
2022/03/08 02:15:49;;;;;;;1.00;1.00;;;-2.80;99.90;;;-143.19;100.00;53775.09;4924810;28;20713;-65
2022/03/08 02:18:18;;;;;;;0.80;0.80;;;-2.90;99.90;;;-143.19;100.00;53775.09;4949542;28;20218;-65
2022/03/08 02:20:46;;;;;;;0.90;0.90;;;-2.90;99.90;;;-143.19;100.00;53775.09;4923536;28;20218;-65
2022/03/08 02:23:15;;;;;;;0.85;0.85;;;-2.90;99.90;;;-143.19;100.00;53775.09;4928504;28;20217;-65
2022/03/08 02:25:43;;;;;;;1.00;1.00;;;-3.00;99.90;;;-143.19;100.00;53775.09;4943409;28;20208;-65
2022/03/08 02:28:11;;;;;;;1.00;1.00;;;-3.10;99.90;;;-143.19;100.00;53775.09;4924603;28;20213;-64
2022/03/08 02:30:39;;;;;;;0.80;0.80;;;-3.00;99.90;;;-143.19;100.00;53775.09;4958435;28;20225;-64
2022/03/08 02:33:08;;;;;;;1.00;1.00;;;-3.00;99.90;;;-143.19;100.00;53775.09;4941116;28;20221;-64
2022/03/08 02:35:36;;;;;;;0.90;0.90;;;-3.10;99.90;;;-143.19;100.00;53775.09;4930267;28;20236;-65
2022/03/08 02:38:06;;;;;;;1.35;1.25;;;-2.90;99.90;;;-143.19;100.00;53775.09;4925863;28;20202;-65
2022/03/08 02:40:38;;;;;;;1.08;1.08;;;-3.00;99.90;;;-143.19;100.00;53775.09;4942909;28;20201;-65
2022/03/08 02:43:10;;;;;;;0.82;0.82;;;-3.00;99.90;;;-143.19;100.00;53775.09;4943826;28;20220;-65
2022/03/08 02:45:38;;;;;;;1.85;1.75;;;-2.90;99.90;;;-143.19;100.00;53775.09;4921331;28;20225;-65
2022/03/08 02:48:08;;;;;;;1.08;1.08;;;-2.90;99.90;;;-143.19;100.00;53775.09;4931805;28;20221;-64
2022/03/08 02:50:36;;;;;;;1.00;1.00;;;-3.00;99.90;;;-143.19;100.00;53775.09;4955348;28;20241;-65
2022/03/08 02:53:05;;;;;;;0.70;0.70;;;-3.00;99.90;;;-143.19;100.00;53775.09;4915345;28;20201;-64
2022/03/08 02:55:35;;;;;;;1.00;1.00;;;-3.00;99.90;;;-143.19;100.00;53775.09;4955741;28;20235;-65
2022/03/08 02:58:05;;;;;;;1.20;1.20;;;-3.00;99.90;;;-143.19;100.00;53775.09;4948708;28;20302;-65
2022/03/08 03:00:34;;;;;;;3.75;3.55;;;-3.10;99.90;;;-143.19;100.00;53775.09;4933230;28;20210;-65
2022/03/08 03:03:04;;;;;;;0.80;0.80;;;-3.00;99.90;;;-143.19;100.00;53775.09;4932339;28;20209;-65
2022/03/08 03:05:34;;;;;;;0.85;0.85;;;-3.00;99.90;;;-143.19;100.00;53775.09;4917857;28;20233;-65
2022/03/08 03:08:04;;;;;;;1.10;1.10;;;-3.10;99.90;;;-143.19;100.00;53775.09;4922489;28;20213;-65
2022/03/08 03:10:32;;;;;;;0.90;0.90;;;-3.10;99.90;;;-143.19;100.00;53775.09;4918225;28;20231;-64
2022/03/08 03:13:00;;;;;;;0.80;0.80;;;-3.10;99.90;;;-143.19;100.00;53775.09;4917685;28;20213;-64
2022/03/08 03:15:30;;;;;;;1.13;1.13;;;-3.10;99.90;;;-143.19;100.00;53775.09;4916987;28;20229;-66
2022/03/08 03:17:59;;;;;;;0.90;0.90;;;-3.10;99.90;;;-143.19;100.00;53775.09;4933613;28;20213;-65
2022/03/08 03:20:28;;;;;;;1.00;1.00;;;-3.20;99.90;;;-143.19;100.00;53775.09;4925662;28;20216;-65
2022/03/08 03:22:56;;;;;;;1.05;1.05;;;-3.20;99.90;;;-143.19;100.00;53775.09;4950159;28;20213;-64
2022/03/08 03:25:24;;;;;;;1.10;1.10;;;-3.20;99.90;;;-143.19;100.00;53775.09;4972930;23;20237;-65
2022/03/08 03:27:52;;;;;;;0.80;0.80;;;-3.10;99.90;;;-143.19;100.00;53775.09;4947060;28;20214;-65
2022/03/08 03:30:20;;;;;;;1.30;1.20;;;-3.20;99.90;;;-143.19;100.00;53775.09;4941477;28;20233;-66
2022/03/08 03:32:48;;;;;;;1.10;1.10;;;-3.20;99.90;;;-143.19;100.00;53775.09;4982302;28;20220;-66
2022/03/08 03:35:16;;;;;;;1.00;1.00;;;-3.20;99.90;;;-143.19;100.00;53775.09;4955153;28;20236;-65
2022/03/08 03:37:45;;;;;;;1.20;1.20;;;-3.10;99.90;;;-143.19;100.00;53775.09;4939748;28;20217;-65
2022/03/08 03:40:14;;;;;;;0.98;0.98;;;-3.10;99.90;;;-143.19;100.00;53775.09;4951933;28;20208;-65
2022/03/08 03:42:43;;;;;;;0.60;0.60;;;-3.10;99.90;;;-143.19;100.00;53775.09;4967598;28;20212;-65
2022/03/08 03:45:12;;;;;;;1.30;1.20;;;-3.10;99.90;;;-143.19;100.00;53775.09;4967554;28;20232;-65
2022/03/08 03:47:40;;;;;;;0.93;0.93;;;-3.20;99.90;;;-143.19;100.00;53775.09;4938908;28;20209;-65
2022/03/08 03:50:09;;;;;;;1.00;1.00;;;-3.20;99.90;;;-143.19;100.00;53775.09;4952891;28;20308;-64
2022/03/08 03:52:37;;;;;;;0.80;0.80;;;-3.20;99.90;;;-143.19;100.00;53775.09;4946596;28;20213;-65
2022/03/08 03:55:13;;;;;;;1.30;1.20;;;-3.10;99.90;;;-143.19;100.00;53775.09;4954399;28;20228;-66
2022/03/08 03:57:41;;;;;;;1.10;1.10;;;-3.10;99.90;;;-143.19;100.00;53775.09;4972600;28;20212;-65
2022/03/08 04:00:14;;;;;;;1.67;1.58;;;-3.00;99.90;;;-143.19;100.00;53775.09;4930719;28;20218;-65
2022/03/08 04:02:43;;;;;;;1.67;1.58;;;-3.00;99.90;;;-143.19;100.00;53775.09;4935320;28;20209;-65
2022/03/08 04:05:12;;;;;;;0.90;0.90;;;-3.00;99.90;;;-143.19;100.00;53775.09;4955372;28;20229;-65
2022/03/08 04:07:41;;;;;;;1.40;1.30;;;-3.00;99.90;;;-143.19;100.00;53775.09;4970102;28;20213;-65
2022/03/08 04:10:11;;;;;;;0.95;0.95;;;-3.00;99.90;;;-143.19;100.00;53775.09;4951056;28;20221;-65
2022/03/08 04:12:41;;;;;;;1.30;1.20;;;-3.00;99.90;;;-143.19;100.00;53775.09;4954391;28;20216;-65
2022/03/08 04:15:10;;;;;;;1.30;1.20;;;-3.00;99.90;;;-143.19;100.00;53775.09;4954959;28;20232;-65
2022/03/08 04:17:38;;;;;;;1.10;1.08;;;-2.90;99.90;;;-143.19;100.00;53775.09;4961997;28;20680;-65
2022/03/08 04:20:08;;;;;;;0.60;0.60;;;-3.00;99.90;;;-143.19;100.00;53775.09;4961495;28;20212;-65
2022/03/08 04:22:36;;;;;;;1.02;1.02;;;-3.00;99.90;;;-143.19;100.00;53775.09;4973236;28;20201;-65
2022/03/08 04:25:06;;;;;;;1.10;1.10;;;-3.00;99.90;;;-143.19;100.00;53775.09;4948179;28;20248;-65
2022/03/08 04:27:34;;;;;;;1.00;1.00;;;-3.00;99.90;;;-143.19;100.00;53775.09;4954056;28;20208;-66
2022/03/08 04:30:06;;;;;;;0.90;0.90;;;-3.00;99.90;;;-143.19;100.00;53775.09;4946534;28;20227;-65
2022/03/08 04:32:34;;;;;;;1.17;1.10;;;-2.90;99.90;;;-143.19;100.00;53775.09;4970706;28;20219;-65
2022/03/08 04:35:03;;;;;;;1.00;1.00;;;-2.90;99.90;;;-143.19;100.00;53775.09;4941366;28;20231;-65
2022/03/08 04:37:31;;;;;;;0.82;0.82;;;-2.90;99.90;;;-143.19;100.00;53775.09;4968973;28;20197;-65
2022/03/08 04:40:00;;;;;;;1.30;1.20;;;-3.00;99.90;;;-143.19;100.00;53775.09;4954288;28;20665;-66
2022/03/08 04:42:28;;;;;;;1.02;1.02;;;-3.00;99.90;;;-143.19;100.00;53775.09;4944781;28;20211;-65
2022/03/08 04:44:56;;;;;;;1.20;1.10;;;-3.10;99.90;;;-143.19;100.00;53775.09;4939468;28;20255;-65
2022/03/08 04:47:24;;;;;;;1.00;1.00;;;-3.10;99.90;;;-143.19;100.00;53775.09;4956081;28;20200;-65
2022/03/08 04:49:52;;;;;;;1.25;1.20;;;-3.00;99.90;;;-143.19;100.00;53775.09;4972925;28;20268;-64
2022/03/08 04:52:20;;;;;;;1.38;1.27;;;-3.00;99.90;;;-143.19;100.00;53775.09;4946681;28;20196;-65
2022/03/08 04:54:48;;;;;;;1.20;1.10;;;-3.00;99.90;;;-143.19;100.00;53775.09;4935850;28;20221;-65
2022/03/08 04:57:17;;;;;;;1.02;1.02;;;-3.00;99.90;;;-143.19;100.00;53775.09;4970488;28;20204;-65
2022/03/08 04:59:45;;;;;;;0.90;0.90;;;-3.10;99.90;;;-143.19;100.00;53775.09;4967646;28;20228;-65
2022/03/08 05:02:13;;;;;;;1.13;1.08;;;-3.00;99.90;;;-143.19;100.00;53775.09;4938864;28;20216;-65
2022/03/08 05:04:41;;;;;;;1.00;1.00;;;-3.00;99.90;;;-143.19;100.00;53775.09;4965492;28;20236;-65
2022/03/08 05:07:09;;;;;;;1.20;1.10;;;-3.10;99.90;;;-143.19;100.00;53775.09;4940032;28;20201;-65
2022/03/08 05:09:37;;;;;;;1.30;1.20;;;-3.20;99.90;;;-143.19;100.00;53775.09;4972677;28;20204;-65
2022/03/08 05:12:08;;;;;;;1.20;1.10;;;-3.20;99.90;;;-143.19;100.00;53775.09;4940389;28;20236;-65
2022/03/08 05:14:36;;;;;;;1.00;1.00;;;-3.20;99.90;;;-143.19;100.00;53775.09;4960139;28;20224;-65
2022/03/08 05:17:04;;;;;;;1.13;1.02;;;-3.20;99.90;;;-143.19;100.00;53775.09;4961966;28;20204;-64
2022/03/08 05:19:33;;;;;;;1.20;1.10;;;-3.30;99.90;;;-143.19;100.00;53775.09;4924195;28;20212;-64
2022/03/08 05:22:01;;;;;;;1.40;1.30;;;-3.30;99.90;;;-143.19;100.00;53775.09;4938799;28;20212;-65
2022/03/08 05:24:29;;;;;;;1.20;1.10;;;-3.30;99.90;;;-143.19;100.00;53775.09;4938226;28;20239;-65
2022/03/08 05:26:57;;;;;;;1.00;1.00;;;-3.30;99.90;;;-143.19;100.00;53775.09;4953292;28;20205;-65
2022/03/08 05:29:26;;;;;;;1.20;1.10;;;-3.30;99.90;;;-143.19;100.00;53775.09;4953769;28;20209;-65
2022/03/08 05:31:54;;;;;;;1.20;1.10;;;-3.30;99.90;;;-143.19;100.00;53775.09;4940684;28;20232;-64
2022/03/08 05:34:22;;;;;;;1.30;1.20;;;-3.30;99.90;;;-143.19;100.00;53775.09;4954384;28;20216;-65
2022/03/08 05:36:50;;;;;;;1.05;1.05;;;-3.20;99.90;;;-143.19;100.00;53775.09;4938112;28;20209;-65
2022/03/08 05:39:19;;;;;;;1.20;1.10;;;-3.20;99.90;;;-143.19;100.00;53775.09;4958332;28;20209;-64
2022/03/08 05:41:48;;;;;;;0.90;0.90;;;-3.20;99.90;;;-143.19;100.00;53775.09;4937866;28;20208;-64
2022/03/08 05:44:16;;;;;;;1.20;1.10;;;-3.20;99.90;;;-143.19;100.00;53775.09;4966119;28;20213;-65
2022/03/08 05:46:45;;;;;;;1.40;1.30;;;-3.20;99.90;;;-143.19;100.00;53775.09;4939909;28;20209;-65
2022/03/08 05:49:13;;;;;;;1.10;1.00;;;-3.20;99.90;;;-143.19;100.00;53775.09;4975189;28;20209;-65
2022/03/08 05:51:43;;;;;;;1.02;1.02;;;-3.10;99.90;;;-143.19;100.00;53775.09;4968042;28;20232;-65
2022/03/08 05:54:11;;;;;;;1.08;1.00;;;-3.20;99.90;;;-143.19;100.00;53775.09;4941532;28;20237;-66
2022/03/08 05:56:39;;;;;;;1.00;1.00;;;-3.20;99.90;;;-143.19;100.00;53775.09;4952670;28;20673;-65
2022/03/08 05:59:07;;;;;;;1.00;1.00;;;-3.30;99.90;;;-143.19;100.00;53775.09;4955291;28;20209;-65
2022/03/08 06:01:35;;;;;;;1.20;1.10;;;-3.30;99.90;;;-143.19;100.00;53775.09;4955478;28;20204;-65
2022/03/08 06:04:03;;;;;;;1.30;1.20;;;-3.30;99.90;;;-143.19;100.00;53775.09;4977403;28;20235;-65
2022/03/08 06:06:31;;;;;;;1.10;1.00;;;-3.30;99.90;;;-143.19;100.00;53775.09;4986983;28;20207;-64
2022/03/08 06:08:59;;;;;;;0.73;0.73;;;-3.30;99.90;;;-143.19;100.00;53775.09;4946829;28;20657;-65
2022/03/08 06:11:27;;;;;;;1.40;1.30;;;-3.30;99.90;;;-143.19;100.00;53775.09;4953876;28;20221;-65
2022/03/08 06:13:55;;;;;;;1.40;1.30;;;-3.30;99.90;;;-143.19;100.00;53775.09;4965474;28;20216;-65
2022/03/08 06:16:23;;;;;;;1.20;1.10;;;-3.30;99.90;;;-143.19;100.00;53775.09;4944707;28;20204;-65
2022/03/08 06:18:55;;;;;;;1.23;1.13;;;-3.30;99.90;;;-143.19;100.00;53775.09;4967479;28;20193;-65
2022/03/08 06:21:23;;;;;;;1.27;1.17;;;-3.20;99.90;;;-143.19;100.00;53775.09;4941990;28;20223;-65
2022/03/08 06:23:51;;;;;;;1.23;1.10;;;-3.20;99.90;;;-143.19;100.00;53775.09;4947197;28;20585;-65
2022/03/08 06:26:19;;;;;;;0.73;0.73;;;-3.30;99.90;;;-143.19;100.00;53775.09;4991863;28;20207;-66
2022/03/08 06:28:47;;;;;;;1.15;1.05;;;-3.10;99.90;;;-143.19;100.00;53775.09;4971768;28;20208;-65
2022/03/08 06:31:15;;;;;;;0.93;0.93;;;-3.20;99.90;;;-143.19;100.00;53775.09;4963797;28;20220;-65
2022/03/08 06:33:43;;;;;;;0.82;0.82;;;-3.10;99.90;;;-143.19;100.00;53775.09;4991032;28;20211;-65
2022/03/08 06:36:11;;;;;;;4.50;4.20;;;-3.10;99.90;;;-143.19;100.00;53775.09;4978499;28;20208;-65
2022/03/08 06:38:39;;;;;;;1.25;1.15;;;-3.10;99.90;;;-143.19;100.00;53775.09;4982158;28;20211;-65
2022/03/08 06:41:07;;;;;;;1.00;1.00;;;-3.20;99.90;;;-143.19;100.00;53775.09;4964604;28;20208;-64
2022/03/08 06:43:35;;;;;;;1.50;1.40;;;-3.10;99.90;;;-143.19;100.00;53775.09;4969519;28;20200;-65
2022/03/08 06:46:03;;;;;;;1.00;1.00;;;-3.10;99.90;;;-143.19;100.00;53775.09;4967233;28;20271;-65
2022/03/08 06:48:37;;;;;;;1.00;1.00;;;-3.10;99.90;;;-143.19;100.00;53775.09;4970672;28;20215;-64
2022/03/08 06:51:04;;;;;;;1.00;1.00;;;-3.10;99.90;;;-143.19;100.00;53775.09;4958699;28;20224;-65
2022/03/08 06:53:33;;;;;;;1.20;1.10;;;-3.10;99.90;;;-143.19;100.00;53775.09;4974868;28;20197;-65
2022/03/08 06:56:01;;;;;;;1.13;1.02;;;-3.10;99.90;;;-143.19;100.00;53775.09;4942100;28;20200;-65
2022/03/08 06:58:30;;;;;;;1.02;1.00;;;-3.10;99.90;;;-143.19;100.00;53775.09;4927901;28;20213;-65
2022/03/08 07:00:58;;;;;;;1.52;1.48;;;-3.00;99.90;;;-143.19;100.00;53775.09;4959252;28;20193;-64
2022/03/08 07:03:26;;;;;;;0.90;0.90;;;-3.00;99.90;;;-143.19;100.00;53775.09;4945401;28;20193;-64
2022/03/08 07:05:54;;;;;;;1.30;1.20;;;-2.90;99.90;;;-143.19;100.00;53775.09;4941864;28;20220;-64
2022/03/08 07:08:23;;;;;;;1.30;1.20;;;-2.90;99.90;;;-143.19;100.00;53775.09;4943019;28;20201;-64
2022/03/08 07:34:47;;;;;;;1.70;1.27;;;-2.10;99.90;;;-143.19;100.00;53775.09;4971036;28;20216;-74
2022/03/08 07:37:37;;;;;;;0.90;0.90;;;-2.10;99.90;;;-143.19;100.00;53775.09;4977094;28;20212;-75
2022/03/08 07:43:20;;;;;;;0.55;0.55;;;-1.80;99.90;;;-143.19;100.00;53775.09;4967281;28;20220;-82
2022/03/08 07:46:09;;;;;;;0.70;0.70;;;-1.70;99.90;;;-143.19;100.00;53775.09;4973070;28;20217;-83
2022/03/08 07:49:04;;;;;;;12.90;6.70;;;-1.50;99.90;;;-143.19;100.00;53775.09;5653760;23;20207;-82
2022/03/08 07:52:08;;;;;;;0.68;0.68;;;-1.30;99.90;;;-143.19;100.00;53775.09;4927367;29;20234;-75
2022/03/08 07:54:56;;;;;;;0.70;0.70;;;-1.10;99.90;;;-143.19;100.00;53775.09;4935151;29;20210;-74
2022/03/08 07:57:45;;;;;;;0.90;0.90;;;-1.00;99.90;;;-143.19;100.00;53775.09;4935843;28;20199;-74
2022/03/08 08:00:50;;;;;;;0.70;0.70;;;-0.80;99.90;;;-143.19;100.00;53775.09;4916033;29;20219;-75
2022/03/08 08:03:39;;;;;;;0.68;0.68;;;-0.70;99.90;;;-143.19;100.00;53775.09;4916120;29;20210;-75
2022/03/08 08:06:27;;;;;;;0.82;0.82;;;-0.60;99.90;;;-143.19;100.00;53775.09;4960971;23;20245;-85
2022/03/08 08:09:15;;;;;;;0.82;0.82;;;-0.60;99.90;;;-143.19;100.00;53775.09;4973330;28;20233;-85
2022/03/08 08:12:09;;;;;;;0.80;0.80;;;-0.50;99.90;;;-143.19;100.00;53775.09;4972267;28;20247;-85
2022/03/08 08:14:57;;;;;;;0.73;0.73;;;-0.30;99.90;;;-143.19;100.00;53775.09;4972039;28;20204;-85
2022/03/08 08:17:45;;;;;;;0.68;0.68;;;-0.20;99.90;;;-143.19;100.00;53775.09;4972552;28;20225;-85
2022/03/08 08:20:34;;;;;;;3.95;3.58;;;-0.10;99.90;;;-143.19;100.00;53775.09;4973122;28;20221;-86
2022/03/08 08:23:23;;;;;;;0.70;0.70;;;-0.10;99.90;;;-143.19;100.00;53775.09;4973216;28;20216;-83
2022/03/08 08:26:11;;;;;;;0.80;0.80;;;0.00;99.90;;;-143.19;100.00;53775.09;4975628;28;20208;-83
2022/03/08 08:29:00;;;;;;;0.70;0.70;;;0.10;99.90;;;-143.19;100.00;53775.09;4974715;28;20221;-82
2022/03/08 08:31:48;;;;;;;0.80;0.80;;;0.40;99.90;;;-143.19;100.00;53775.09;4976047;28;20236;-83
2022/03/08 08:34:37;;;;;;;0.80;0.80;;;0.50;99.90;;;-143.19;100.00;53775.09;4973927;28;20204;-84
2022/03/08 08:37:25;;;;;;;0.80;0.80;;;0.60;99.90;;;-143.19;100.00;53775.09;4974671;28;20205;-82
2022/03/08 08:40:14;;;;;;;0.80;0.80;;;0.70;99.90;;;-143.19;100.00;53775.09;4958771;28;20221;-82
2022/03/08 08:43:05;;;;;;;0.77;0.77;;;0.80;99.90;;;-143.19;100.00;53775.09;4971929;28;20201;-83
2022/03/08 08:45:53;;;;;;;1.80;1.70;;;0.90;99.90;;;-143.19;100.00;53775.09;4968949;28;20209;-84
2022/03/08 08:48:41;;;;;;;1.30;1.20;;;0.90;99.90;;;-143.19;100.00;53775.09;4972602;28;20201;-82
2022/03/08 08:51:31;;;;;;;0.95;0.95;;;1.10;99.90;;;-143.19;100.00;53775.09;4962678;28;20232;-81
2022/03/08 08:54:19;;;;;;;1.20;1.10;;;1.20;99.90;;;-143.19;100.00;53775.09;4970326;28;20563;-81
2022/03/08 08:57:08;;;;;;;1.10;1.00;;;1.40;99.90;;;-143.19;100.00;53775.09;4972836;28;20574;-80
2022/03/08 08:59:56;;;;;;;0.80;0.80;;;1.70;99.90;;;-143.19;100.00;53775.09;4971662;28;20225;-81
2022/03/08 09:02:45;;;;;;;1.10;1.00;;;1.90;99.90;;;-143.19;100.00;53775.09;4959572;28;20205;-82
2022/03/08 09:05:34;;;;;;;0.80;0.80;;;2.10;99.90;;;-143.19;100.00;53775.09;4974038;28;20212;-81
2022/03/08 09:08:24;;;;;;;1.10;1.00;;;2.20;99.90;;;-143.19;100.00;53775.09;4953619;29;20221;-84
2022/03/08 09:11:12;;;;;;;0.82;0.80;;;2.30;99.90;;;-143.19;100.00;53775.09;4954362;28;20205;-84
2022/03/08 09:14:02;;;;;;;0.85;0.80;;;2.50;99.90;;;-143.19;100.00;53775.09;4951861;29;20222;-82
2022/03/08 09:16:50;;;;;;;0.65;0.65;;;2.60;99.90;;;-143.19;100.00;53775.09;4945629;28;20201;-84
2022/03/08 09:19:39;;;;;;;1.45;1.25;;;2.70;99.90;;;-143.19;100.00;53775.09;4958170;28;20250;-83
2022/03/08 09:22:28;;;;;;;1.05;0.95;;;2.80;99.90;;;-143.19;100.00;53775.09;4966960;28;20201;-83
2022/03/08 09:24:56;;;;;;;0.50;0.50;;;3.10;99.90;;;-143.19;100.00;53775.09;4958675;28;20201;-82
2022/03/08 09:27:24;;;;;;;0.70;0.70;;;3.20;99.90;;;-143.19;100.00;53775.09;4954747;28;20216;-83
2022/03/08 09:29:52;;;;;;;1.10;1.00;;;3.20;99.90;;;-143.19;100.00;53775.09;4974216;28;20702;-86
2022/03/08 09:32:20;;;;;;;0.95;0.85;;;3.30;99.90;;;-143.19;100.00;53775.09;4953445;28;20244;-87
2022/03/08 09:34:48;;;;;;;3.20;2.20;;;3.50;99.90;;;-143.19;100.00;53775.09;4973542;28;20650;-83
2022/03/08 09:37:17;;;;;;;2.10;1.50;;;3.60;99.90;;;-143.19;100.00;53775.09;4961317;28;20205;-89
2022/03/08 09:39:45;;;;;;;2.35;1.95;;;3.70;99.90;;;-143.19;100.00;53775.09;4968679;28;20226;-86
2022/03/08 09:42:13;;;;;;;0.80;0.80;;;3.70;99.90;;;-143.19;100.00;53775.09;4973262;28;20209;-88
2022/03/08 09:44:43;;;;;;;1.73;1.25;;;3.70;99.90;;;-143.19;100.00;53775.09;4969580;28;20209;-86
2022/03/08 09:47:12;;;;;;;1.17;1.00;;;3.80;99.90;;;-143.19;100.00;53775.09;4970614;28;20641;-86
2022/03/08 09:49:40;;;;;;;1.33;1.08;;;3.90;99.90;;;-143.19;100.00;53775.09;4970429;28;20233;-86
2022/03/08 09:52:09;;;;;;;1.00;0.90;;;4.00;99.90;;;-143.19;100.00;53775.09;4971292;28;20584;-86
2022/03/08 09:54:37;;;;;;;3.95;3.58;;;4.10;99.90;;;-143.19;100.00;53775.09;4957176;28;20233;-88
2022/03/08 09:57:11;;;;;;;1.63;1.10;;;4.30;99.90;;;-143.19;100.00;53775.09;4965552;28;20233;-86
2022/03/08 09:59:40;;;;;;;1.25;1.13;;;4.40;99.90;;;-143.19;100.00;53775.09;4962459;28;20229;-86
2022/03/08 10:02:14;;;;;;;1.90;1.27;;;4.40;99.90;;;-143.19;100.00;53775.09;4974491;28;20197;-85
2022/03/08 10:04:42;;;;;;;2.78;2.58;;;4.60;99.90;;;-143.19;100.00;53775.09;4974199;28;20213;-85
2022/03/08 10:07:28;;;;;;;1.15;1.00;;;4.80;99.90;;;-143.19;100.00;53775.09;4974704;28;20216;-81
2022/03/08 10:09:58;;;;;;;1.38;1.00;;;5.10;99.90;;;-143.19;100.00;53775.09;4974522;28;20217;-82
2022/03/08 10:12:27;;;;;;;1.75;1.15;;;5.10;99.90;;;-143.19;100.00;53775.09;4975695;28;20236;-81
2022/03/08 10:14:56;;;;;;;1.00;0.90;;;5.20;99.90;;;-143.19;100.00;53775.09;4976539;28;20213;-81
2022/03/08 10:17:41;;;;;;;0.85;0.82;;;5.40;99.90;;;-143.19;100.00;53775.09;4974903;28;20201;-82
2022/03/08 10:20:12;;;;;;;1.08;0.98;;;5.50;99.90;;;-143.19;100.00;53775.09;4973516;28;20229;-82
2022/03/08 10:22:41;;;;;;;1.38;1.00;;;5.60;99.90;;;-143.19;100.00;53775.09;4975107;28;20216;-82
2022/03/08 10:25:26;;;;;;;1.73;1.27;;;5.80;99.90;;;-143.19;100.00;53775.09;4974537;28;20220;-83
2022/03/08 10:27:54;;;;;;;0.95;0.88;;;6.00;99.90;;;-143.19;100.00;53775.09;4958618;28;20216;-82
2022/03/08 10:30:27;;;;;;;0.60;0.60;;;6.00;99.90;;;-143.19;100.00;53775.09;4949723;28;20706;-81
2022/03/08 10:33:04;;;;;;;0.55;0.50;;;6.20;99.90;;;-143.19;100.00;53775.09;4973952;28;20221;-81
2022/03/08 10:35:37;;;;;;;1.58;1.17;;;6.40;99.90;;;-143.19;100.00;53775.09;4975976;28;20609;-85
2022/03/08 10:38:09;;;;;;;2.17;1.30;;;6.50;99.90;;;-143.19;100.00;53775.09;4973473;28;20228;-83
2022/03/08 10:40:38;;;;;;;0.55;0.55;;;6.40;99.90;;;-143.19;100.00;53775.09;4976146;28;20224;-82
2022/03/08 10:43:13;;;;;;;1.00;0.90;;;6.50;99.90;;;-143.19;100.00;53775.09;4973856;28;20205;-82
2022/03/08 10:45:50;;;;;;;0.50;0.50;;;6.60;99.90;;;-143.19;100.00;53775.09;4987731;28;20212;-82
2022/03/08 10:48:20;;;;;;;0.52;0.52;;;6.90;99.90;;;-143.19;100.00;53775.09;4989247;28;20216;-81